Time;durP1;ratioP1;P1;durP2;ratioP2;P2;SDS_P1;SDS_P2;PMS_P1;PMS_P2;Temp;Humidity;BMP_temperature;BMP_pressure;BME280_temperature;BME280_humidity;BME280_pressure;Samples;Min_cycle;Max_cycle;Signal;HPM_P1;HPM_P2
2021/12/27 00:01:48;;;;;;;0.70;0.70;;;;;;;21.92;5.94;99621.50;5115774;28;20058;-78
2021/12/27 00:04:13;;;;;;;0.90;0.90;;;;;;;21.92;6.00;99618.78;5114887;28;20046;-78
2021/12/27 00:06:39;;;;;;;0.70;0.70;;;;;;;21.96;5.87;99613.59;5115851;28;20069;-78
2021/12/27 00:09:04;;;;;;;0.70;0.70;;;;;;;21.90;5.96;99620.97;5116047;28;20462;-78
2021/12/27 00:11:30;;;;;;;0.70;0.70;;;;;;;21.96;5.85;99607.34;5129760;27;20039;-78
2021/12/27 00:13:55;;;;;;;0.82;0.82;;;;;;;21.96;5.86;99623.66;5136339;27;20023;-78
2021/12/27 00:16:20;;;;;;;0.80;0.80;;;;;;;21.90;5.92;99618.25;5117754;27;20100;-78
2021/12/27 00:18:46;;;;;;;0.80;0.80;;;;;;;21.93;5.85;99620.41;5136022;27;20019;-78
2021/12/27 00:21:11;;;;;;;1.17;1.08;;;;;;;21.93;5.86;99631.28;5117823;27;20038;-78
2021/12/27 00:23:37;;;;;;;0.70;0.70;;;;;;;21.89;5.93;99634.88;5135121;27;20031;-78
2021/12/27 00:26:02;;;;;;;0.75;0.75;;;;;;;21.91;5.84;99635.38;5136106;27;20027;-78
2021/12/27 00:28:30;;;;;;;1.02;0.80;;;;;;;21.92;5.68;99634.28;5117405;27;20492;-78
2021/12/27 00:30:56;;;;;;;0.80;0.80;;;;;;;21.90;5.81;99645.47;5117898;27;20052;-78
2021/12/27 00:33:21;;;;;;;1.13;1.02;;;;;;;21.93;5.70;99642.16;5117746;27;20098;-78
2021/12/27 00:35:48;;;;;;;0.80;0.80;;;;;;;21.88;5.74;99649.53;5117604;27;20027;-78
2021/12/27 00:38:13;;;;;;;0.77;0.77;;;;;;;21.90;5.79;99641.91;5135699;27;20015;-78
2021/12/27 00:40:39;;;;;;;0.80;0.80;;;;;;;21.92;5.73;99646.00;5135520;27;20037;-78
2021/12/27 00:43:04;;;;;;;0.70;0.70;;;;;;;21.89;5.70;99646.53;5136422;27;20023;-78
2021/12/27 00:45:30;;;;;;;0.60;0.60;;;;;;;21.89;5.73;99649.25;5117734;27;20027;-78
2021/12/27 00:47:55;;;;;;;0.80;0.80;;;;;;;21.90;5.68;99650.91;5117319;27;20321;-78
2021/12/27 00:50:21;;;;;;;1.10;1.00;;;;;;;21.90;5.71;99653.63;5117165;27;20035;-78
2021/12/27 00:52:46;;;;;;;0.88;0.88;;;;;;;21.90;5.75;99667.22;5135712;27;20026;-78
2021/12/27 00:55:12;;;;;;;0.75;0.75;;;;;;;21.89;5.60;99668.31;5117503;27;20034;-78
2021/12/27 00:57:39;;;;;;;0.70;0.70;;;;;;;21.90;5.75;99664.50;5118194;27;20038;-78
2021/12/27 01:00:07;;;;;;;0.80;0.80;;;;;;;21.89;5.54;99668.31;5117584;27;20027;-78
2021/12/27 01:02:32;;;;;;;0.73;0.73;;;;;;;21.89;5.38;99672.94;5118174;27;20042;-78
2021/12/27 01:04:58;;;;;;;0.80;0.80;;;;;;;21.89;5.54;99679.19;5135107;27;20326;-78
2021/12/27 01:07:23;;;;;;;0.80;0.80;;;;;;;21.89;5.59;99675.66;5135399;27;20019;-78
2021/12/27 01:12:45;;;;;;;0.95;0.93;;;;;;;21.90;5.51;99685.44;5134997;27;20043;-78
2021/12/27 01:15:33;;;;;;;0.70;0.70;;;;;;;21.89;5.57;99706.38;5135008;27;20031;-78
2021/12/27 01:17:56;;;;;;;0.90;0.80;;;;;;;21.91;5.45;99703.41;5135053;27;20534;-78
2021/12/27 01:20:23;;;;;;;0.70;0.70;;;;;;;21.92;5.45;99729.47;5116832;27;20023;-78
2021/12/27 01:22:48;;;;;;;0.73;0.73;;;;;;;21.88;5.55;99729.22;5116499;27;20102;-78
2021/12/27 01:25:14;;;;;;;0.73;0.70;;;;;;;21.89;5.63;99733.59;5116486;27;20024;-78
2021/12/27 01:27:40;;;;;;;0.93;0.90;;;;;;;21.87;5.54;99727.63;5116574;27;20030;-78
2021/12/27 01:30:07;;;;;;;1.05;0.80;;;;;;;21.85;5.68;99735.25;5116396;27;20066;-78
2021/12/27 01:32:35;;;;;;;0.90;0.90;;;;;;;21.87;5.61;99724.91;5117415;27;20030;-78
2021/12/27 01:35:00;;;;;;;0.80;0.80;;;;;;;21.83;5.66;99731.97;5116995;27;20031;-78
2021/12/27 01:37:26;;;;;;;0.80;0.80;;;;;;;21.88;5.65;99729.22;5134598;27;20032;-78
2021/12/27 01:39:51;;;;;;;0.60;0.60;;;;;;;21.89;5.70;99738.22;5150516;27;20027;-78
2021/12/27 01:42:17;;;;;;;0.82;0.82;;;;;;;21.85;5.72;99732.53;5099765;27;20015;-78
2021/12/27 01:44:42;;;;;;;0.80;0.80;;;;;;;21.86;5.70;99727.91;5116506;27;20038;-78
2021/12/27 01:47:09;;;;;;;0.70;0.70;;;;;;;21.88;5.61;99726.50;5134866;27;20069;-78
2021/12/27 01:49:36;;;;;;;0.80;0.80;;;;;;;21.90;5.73;99728.97;5116596;28;20027;-78
2021/12/27 01:52:01;;;;;;;0.68;0.68;;;;;;;21.85;5.78;99740.69;5116792;28;20019;-78
2021/12/27 01:54:26;;;;;;;0.80;0.80;;;;;;;21.86;5.72;99728.69;5101918;28;20023;-78
2021/12/27 01:56:52;;;;;;;1.10;1.00;;;;;;;21.85;5.71;99737.97;5156789;28;20019;-78
2021/12/27 01:59:18;;;;;;;0.70;0.70;;;;;;;21.86;5.81;99739.59;5143105;28;20046;-79
2021/12/27 02:01:43;;;;;;;0.88;0.80;;;;;;;21.89;5.81;99735.50;5134748;28;20034;-78
2021/12/27 02:04:08;;;;;;;0.88;0.88;;;;;;;21.86;5.77;99750.47;5135225;28;20473;-78
2021/12/27 02:06:34;;;;;;;0.95;0.90;;;;;;;21.90;5.93;99745.28;5134565;28;20027;-77
2021/12/27 02:08:59;;;;;;;0.68;0.68;;;;;;;21.87;5.94;99741.22;5134981;28;20030;-79
2021/12/27 02:11:26;;;;;;;0.80;0.80;;;;;;;21.85;6.04;99731.69;5148164;28;20043;-78
2021/12/27 02:13:51;;;;;;;0.82;0.82;;;;;;;21.87;5.99;99743.09;5154706;28;20027;-79
2021/12/27 02:16:19;;;;;;;0.73;0.73;;;;;;;21.88;6.07;99737.38;5125291;28;20022;-77
2021/12/27 02:18:45;;;;;;;0.77;0.77;;;;;;;21.88;6.01;99729.22;5108607;28;20057;-78
2021/12/27 02:21:10;;;;;;;0.80;0.80;;;;;;;21.88;6.10;99736.59;5107824;28;20028;-78
2021/12/27 02:23:39;;;;;;;0.70;0.70;;;;;;;21.87;6.00;99746.66;5124943;28;20032;-78
2021/12/27 02:26:04;;;;;;;0.77;0.77;;;;;;;21.87;5.98;99746.66;5125148;28;20034;-78
2021/12/27 02:28:30;;;;;;;0.70;0.70;;;;;;;21.89;6.04;99752.63;5141287;28;20026;-78
2021/12/27 02:30:55;;;;;;;0.80;0.80;;;;;;;21.89;5.99;99749.09;5135544;28;20031;-78
2021/12/27 02:33:21;;;;;;;0.80;0.80;;;;;;;21.88;5.96;99750.19;5135525;28;20076;-78
2021/12/27 02:35:51;;;;;;;0.82;0.77;;;;;;;21.91;5.87;99758.59;5134851;28;20068;-78
2021/12/27 02:38:28;;;;;;;0.80;0.80;;;;;;;21.89;5.78;99765.44;5134436;28;20054;-78
2021/12/27 02:40:53;;;;;;;0.73;0.73;;;;;;;21.89;5.85;99766.22;5134377;28;20050;-78
2021/12/27 02:43:21;;;;;;;0.82;0.82;;;;;;;21.85;5.92;99764.34;5099342;28;20466;-78
2021/12/27 02:45:48;;;;;;;0.80;0.80;;;;;;;21.86;5.74;99769.50;5135802;27;20064;-79
2021/12/27 02:48:14;;;;;;;0.90;0.90;;;;;;;21.89;5.77;99773.59;5120053;27;20032;-78
2021/12/27 02:50:41;;;;;;;0.90;0.90;;;;;;;21.89;5.64;99770.88;5119881;27;20049;-78
2021/12/27 02:53:06;;;;;;;0.70;0.70;;;;;;;21.89;5.60;99763.50;5119658;27;20019;-78
2021/12/27 02:55:32;;;;;;;0.73;0.73;;;;;;;21.88;5.68;99759.16;5113513;28;20081;-78
2021/12/27 02:57:58;;;;;;;0.80;0.80;;;;;;;21.88;5.68;99764.59;5117381;28;20442;-78
2021/12/27 03:00:27;;;;;;;0.70;0.70;;;;;;;21.87;5.37;99756.72;5082186;28;20379;-78
2021/12/27 03:02:52;;;;;;;0.70;0.70;;;;;;;21.88;5.55;99772.75;5082840;28;20092;-78
2021/12/27 03:05:19;;;;;;;0.88;0.88;;;;;;;21.90;5.47;99765.16;5115691;28;20423;-78
2021/12/27 03:07:45;;;;;;;0.90;0.90;;;;;;;21.87;5.46;99768.41;5099176;28;20019;-78
2021/12/27 03:10:11;;;;;;;0.90;0.90;;;;;;;21.88;5.28;99770.03;5084731;27;20413;-78
2021/12/27 03:12:38;;;;;;;0.80;0.80;;;;;;;21.90;5.31;99762.44;5119422;27;20030;-77
2021/12/27 03:15:10;;;;;;;0.95;0.95;;;;;;;21.88;5.18;99770.03;5119137;27;20076;-77
2021/12/27 03:17:36;;;;;;;1.02;0.95;;;;;;;21.90;5.25;99776.03;5119753;27;20385;-77
2021/12/27 03:20:06;;;;;;;0.80;0.80;;;;;;;21.89;5.16;99774.41;5118751;27;20094;-78
2021/12/27 03:22:31;;;;;;;1.17;1.08;;;;;;;21.89;5.04;99766.22;5137206;27;20457;-78
2021/12/27 03:24:57;;;;;;;0.70;0.70;;;;;;;21.91;5.08;99777.66;5137105;27;20049;-78
2021/12/27 03:27:22;;;;;;;0.80;0.80;;;;;;;21.94;5.05;99776.28;5136997;27;20065;-78
2021/12/27 03:29:47;;;;;;;1.00;0.90;;;;;;;22.02;5.00;99777.59;5084180;27;20145;-79
2021/12/27 03:32:15;;;;;;;0.80;0.80;;;;;;;22.06;5.07;99781.38;5137204;27;20072;-78
2021/12/27 03:34:52;;;;;;;0.90;0.90;;;;;;;22.11;5.12;99775.91;5137213;27;20084;-78
2021/12/27 03:37:18;;;;;;;0.73;0.73;;;;;;;22.16;5.13;99778.63;5137229;27;20347;-78
2021/12/27 03:39:43;;;;;;;1.10;1.00;;;;;;;22.19;5.12;99779.97;5137035;27;20072;-78
2021/12/27 03:42:09;;;;;;;0.85;0.85;;;;;;;22.18;5.48;99781.91;5136732;27;20027;-78
2021/12/27 03:44:34;;;;;;;0.77;0.77;;;;;;;22.19;5.28;99786.22;5136658;27;20050;-78
2021/12/27 03:47:00;;;;;;;0.90;0.90;;;;;;;22.18;5.42;99792.78;5136579;27;20028;-78
2021/12/27 03:49:25;;;;;;;0.90;0.90;;;;;;;22.21;5.49;99799.56;5136901;27;20071;-78
2021/12/27 03:51:50;;;;;;;0.98;0.90;;;;;;;22.19;5.63;99799.03;5136543;27;20475;-78
2021/12/27 03:54:16;;;;;;;0.93;0.93;;;;;;;22.18;5.70;99798.22;5118953;27;20024;-78
2021/12/27 03:56:41;;;;;;;0.63;0.63;;;;;;;22.18;5.83;99798.22;5117407;28;20027;-78
2021/12/27 03:59:22;;;;;;;0.85;0.85;;;;;;;22.20;5.82;99803.41;5136475;27;20469;-78
2021/12/27 04:01:47;;;;;;;0.85;0.82;;;;;;;22.14;5.88;99802.59;5136694;27;20068;-78
2021/12/27 04:04:13;;;;;;;0.73;0.73;;;;;;;22.18;5.92;99811.00;5117812;27;20076;-78
2021/12/27 04:06:38;;;;;;;0.80;0.80;;;;;;;22.18;6.02;99811.84;5136736;27;20023;-78
2021/12/27 04:09:04;;;;;;;0.90;0.90;;;;;;;22.15;6.05;99817.03;5136563;27;20027;-79
2021/12/27 04:11:31;;;;;;;1.13;1.02;;;;;;;22.17;6.03;99810.19;5136033;27;20035;-78
2021/12/27 04:13:57;;;;;;;0.90;0.90;;;;;;;22.19;6.04;99808.00;5136053;27;20458;-78
2021/12/27 04:16:22;;;;;;;0.90;0.90;;;;;;;22.17;6.17;99818.34;5118071;27;20031;-78
2021/12/27 04:18:49;;;;;;;0.90;0.90;;;;;;;22.15;6.16;99823.28;5136086;27;20039;-78
2021/12/27 04:21:15;;;;;;;1.00;1.00;;;;;;;22.16;6.24;99819.44;5136216;27;20027;-78
2021/12/27 04:23:41;;;;;;;0.80;0.80;;;;;;;22.18;6.04;99820.00;5117928;27;20035;-78
2021/12/27 04:26:06;;;;;;;1.00;1.00;;;;;;;22.17;6.25;99820.28;5117851;27;20473;-78
2021/12/27 04:28:32;;;;;;;0.75;0.75;;;;;;;22.15;6.15;99817.81;5100491;27;20113;-78
2021/12/27 04:30:57;;;;;;;0.95;0.90;;;;;;;22.15;6.23;99812.38;5117538;27;20038;-77
2021/12/27 04:33:23;;;;;;;1.00;0.95;;;;;;;22.19;6.15;99821.59;5100317;27;20027;-78
2021/12/27 04:35:48;;;;;;;1.05;0.95;;;;;;;22.04;6.34;99817.06;5101092;27;20342;-78
2021/12/27 04:38:14;;;;;;;0.82;0.82;;;;;;;22.02;6.39;99815.69;5136081;27;20072;-79
2021/12/27 04:40:41;;;;;;;1.25;1.10;;;;;;;22.17;6.77;99821.06;5100522;27;20484;-78
2021/12/27 04:43:08;;;;;;;0.90;0.90;;;;;;;22.19;6.37;99812.63;5100842;27;20128;-77
2021/12/27 04:45:34;;;;;;;2.08;1.20;;;;;;;22.20;6.32;99819.72;5136099;27;20019;-78
2021/12/27 04:48:01;;;;;;;0.93;0.90;;;;;;;22.27;6.20;99823.78;5136413;27;20465;-78
2021/12/27 04:50:26;;;;;;;1.00;1.00;;;;;;;22.33;6.22;99815.59;5136518;27;20034;-77
2021/12/27 04:52:55;;;;;;;0.80;0.80;;;;;;;22.34;6.30;99823.50;5137051;27;20114;-77
2021/12/27 04:55:22;;;;;;;1.30;1.20;;;;;;;22.36;6.14;99831.38;5133540;27;20426;-77
2021/12/27 04:57:47;;;;;;;1.13;1.02;;;;;;;22.39;6.31;99830.81;5081677;28;20028;-77
2021/12/27 05:00:13;;;;;;;0.75;0.75;;;;;;;22.43;6.12;99834.59;5081657;28;20050;-78
2021/12/27 05:02:38;;;;;;;1.08;0.98;;;;;;;22.44;6.12;99838.97;5117046;28;20104;-77
2021/12/27 05:05:04;;;;;;;1.08;0.90;;;;;;;22.45;6.04;99846.03;5115478;28;20039;-77
2021/12/27 05:07:29;;;;;;;1.13;1.02;;;;;;;22.49;6.19;99860.69;5097308;28;20020;-77
2021/12/27 05:09:55;;;;;;;0.70;0.70;;;;;;;22.49;6.09;99869.69;5096984;27;20424;-77
2021/12/27 05:12:20;;;;;;;0.90;0.90;;;;;;;22.52;5.95;99871.03;5134990;27;20039;-77
2021/12/27 05:14:45;;;;;;;0.80;0.80;;;;;;;22.57;6.06;99862.84;5135151;27;20040;-77
2021/12/27 05:17:11;;;;;;;0.95;0.90;;;;;;;22.59;6.06;99868.81;5135172;27;20027;-77
2021/12/27 05:19:36;;;;;;;0.68;0.68;;;;;;;22.61;6.00;99874.81;5134953;27;20385;-77
2021/12/27 05:22:02;;;;;;;0.88;0.88;;;;;;;22.62;5.99;99876.44;5135970;27;20036;-77
2021/12/27 05:24:28;;;;;;;0.90;0.90;;;;;;;22.65;5.96;99878.59;5135435;27;20030;-77
2021/12/27 05:26:54;;;;;;;0.80;0.80;;;;;;;22.65;6.02;99883.25;5135573;27;20094;-77
2021/12/27 05:29:19;;;;;;;0.90;0.90;;;;;;;22.67;6.09;99875.59;5134920;27;20533;-78
2021/12/27 05:31:44;;;;;;;1.08;0.98;;;;;;;22.75;6.07;99882.34;5135297;27;20415;-78
2021/12/27 05:34:11;;;;;;;1.63;1.23;;;;;;;22.77;6.04;99880.19;5135360;27;20046;-78
2021/12/27 05:36:36;;;;;;;1.02;0.95;;;;;;;22.66;5.88;99893.84;5134584;27;20090;-78
2021/12/27 05:39:01;;;;;;;1.20;1.10;;;;;;;22.71;6.00;99886.75;5134787;27;20027;-78
2021/12/27 05:41:27;;;;;;;0.93;0.93;;;;;;;22.75;6.01;99891.34;5134636;27;20369;-78
2021/12/27 05:43:52;;;;;;;0.88;0.85;;;;;;;22.79;5.77;99888.88;5116168;28;20019;-78
2021/12/27 05:46:18;;;;;;;0.80;0.80;;;;;;;22.80;5.87;99890.50;5134162;27;20423;-78
2021/12/27 05:48:43;;;;;;;0.98;0.95;;;;;;;22.80;5.81;99890.50;5134464;27;20031;-77
2021/12/27 05:51:08;;;;;;;1.00;1.00;;;;;;;22.84;5.77;99891.59;5134455;27;20034;-77
2021/12/27 05:53:34;;;;;;;0.85;0.85;;;;;;;22.86;5.67;99894.84;5134221;27;20026;-77
2021/12/27 05:55:59;;;;;;;1.23;1.10;;;;;;;22.88;5.64;99892.63;5134311;27;20023;-77
2021/12/27 05:58:25;;;;;;;1.20;1.10;;;;;;;22.89;5.51;99886.09;5134017;28;20105;-78
2021/12/27 06:00:51;;;;;;;1.00;0.90;;;;;;;22.87;5.59;99886.38;5115842;28;20041;-78
2021/12/27 06:03:16;;;;;;;1.00;0.90;;;;;;;22.91;5.76;99892.06;5134208;28;20015;-77
2021/12/27 06:05:42;;;;;;;0.90;0.90;;;;;;;22.93;5.58;99891.81;5134309;28;20035;-77
2021/12/27 06:08:07;;;;;;;1.45;1.00;;;;;;;22.94;5.58;99894.25;5134290;28;20031;-78
2021/12/27 06:10:32;;;;;;;1.05;0.98;;;;;;;22.97;5.57;99893.66;5134356;28;20043;-77
2021/12/27 06:12:58;;;;;;;1.00;1.00;;;;;;;22.98;5.42;99894.50;5134724;28;20023;-78
2021/12/27 06:15:23;;;;;;;0.82;0.82;;;;;;;22.99;5.43;99896.94;5134709;28;20031;-78
2021/12/27 06:17:49;;;;;;;1.10;1.00;;;;;;;23.03;5.45;99897.19;5134187;28;20023;-78
2021/12/27 06:20:15;;;;;;;1.00;0.90;;;;;;;23.04;5.43;99898.81;5135128;27;20027;-78
2021/12/27 06:22:47;;;;;;;1.20;1.05;;;;;;;23.03;5.72;99891.72;5120376;27;20057;-79
2021/12/27 06:25:12;;;;;;;1.42;1.13;;;;;;;22.95;5.45;99890.41;5119914;27;20062;-78
2021/12/27 06:27:38;;;;;;;1.17;1.08;;;;;;;23.01;5.46;99888.50;5138472;27;20027;-78
2021/12/27 06:30:06;;;;;;;0.90;0.90;;;;;;;23.05;5.58;99901.28;5138179;27;20038;-78
2021/12/27 06:32:32;;;;;;;1.20;1.10;;;;;;;23.08;5.45;99893.63;5138182;27;20437;-78
2021/12/27 06:34:58;;;;;;;1.23;1.13;;;;;;;22.94;5.50;99905.16;5137631;27;20044;-78
2021/12/27 06:37:23;;;;;;;1.65;1.02;;;;;;;23.10;5.13;99907.81;5137592;27;20466;-78
2021/12/27 06:39:48;;;;;;;1.10;1.00;;;;;;;23.09;5.78;99908.88;5137671;27;20072;-77
2021/12/27 06:42:14;;;;;;;1.33;1.10;;;;;;;23.14;5.49;99919.75;5119571;27;20477;-77
2021/12/27 06:44:39;;;;;;;2.17;1.00;;;;;;;23.14;5.35;99926.00;5137812;27;20389;-77
2021/12/27 06:47:05;;;;;;;2.00;0.90;;;;;;;23.14;5.24;99927.94;5138170;27;20024;-77
2021/12/27 06:49:33;;;;;;;1.02;0.98;;;;;;;23.15;5.32;99921.41;5138009;27;20369;-79
2021/12/27 06:51:58;;;;;;;22.70;9.18;;;;;;;23.14;5.42;99917.03;5119792;27;20094;-77
2021/12/27 06:54:24;;;;;;;44.42;13.90;;;;;;;23.16;5.06;99917.56;5103015;27;20114;-78
2021/12/27 06:56:49;;;;;;;19.83;7.10;;;;;;;23.13;5.21;99921.69;5123349;27;20024;-77
2021/12/27 06:59:15;;;;;;;18.67;7.13;;;;;;;23.15;5.15;99927.66;5098837;28;20428;-77
2021/12/27 07:01:41;;;;;;;24.48;9.15;;;;;;;23.18;5.37;99934.44;5116971;28;20024;-77
2021/12/27 07:04:06;;;;;;;16.63;6.28;;;;;;;23.17;5.25;99936.38;5099305;28;20035;-77
2021/12/27 07:06:32;;;;;;;11.38;4.70;;;;;;;23.20;5.11;99935.00;5116755;28;20434;-77
2021/12/27 07:08:57;;;;;;;6.30;3.40;;;;;;;23.24;5.67;99941.50;5117232;28;20039;-76
2021/12/27 07:11:22;;;;;;;5.97;2.88;;;;;;;23.17;4.92;99943.72;5130402;27;20042;-76
2021/12/27 07:13:48;;;;;;;4.65;2.42;;;;;;;23.23;4.80;99948.88;5137508;27;20053;-76
2021/12/27 07:16:13;;;;;;;4.07;2.30;;;;;;;23.22;5.11;99949.16;5137463;27;20034;-78
2021/12/27 07:18:39;;;;;;;3.50;2.10;;;;;;;23.24;5.22;99953.22;5138357;27;20083;-78
2021/12/27 07:21:04;;;;;;;2.33;1.85;;;;;;;23.10;5.02;99962.31;5138297;27;20023;-76
2021/12/27 07:23:29;;;;;;;4.57;1.98;;;;;;;23.23;5.11;99964.41;5120316;27;20058;-76
2021/12/27 07:25:55;;;;;;;3.20;1.58;;;;;;;23.24;5.28;99964.13;5137277;27;20362;-77
2021/12/27 07:28:20;;;;;;;5.95;1.85;;;;;;;23.25;5.19;99975.84;5137467;27;20031;-77
2021/12/27 07:30:46;;;;;;;5.68;1.50;;;;;;;23.22;5.13;99977.22;5137110;27;20068;-78
2021/12/27 07:33:11;;;;;;;3.38;1.70;;;;;;;23.26;5.10;99969.28;5137021;27;20046;-77
2021/12/27 07:35:37;;;;;;;4.25;1.45;;;;;;;23.27;5.05;99979.09;5137172;27;20023;-77
2021/12/27 07:38:05;;;;;;;3.90;1.52;;;;;;;23.28;5.02;99980.72;5101186;27;20049;-78
2021/12/27 07:40:31;;;;;;;2.53;1.50;;;;;;;23.29;4.88;99987.81;5137353;27;20023;-77
2021/12/27 07:42:56;;;;;;;1.70;1.17;;;;;;;23.26;4.58;99993.81;5138465;27;20030;-76
2021/12/27 07:45:22;;;;;;;1.83;1.25;;;;;;;23.33;4.76;99990.78;5137678;27;20039;-77
2021/12/27 07:47:47;;;;;;;1.80;1.65;;;;;;;23.34;4.66;99997.88;5137446;27;20030;-77
2021/12/27 07:50:13;;;;;;;3.15;1.30;;;;;;;23.36;4.85;99998.41;5119494;27;20374;-76
2021/12/27 07:52:38;;;;;;;1.80;1.38;;;;;;;23.35;4.82;99996.75;5138111;27;20462;-78
2021/12/27 07:55:04;;;;;;;3.28;1.80;;;;;;;23.33;4.46;99999.78;5137685;27;20027;-76
2021/12/27 07:57:29;;;;;;;1.60;1.40;;;;;;;23.33;4.71;99994.31;5119146;27;20103;-77
2021/12/27 07:59:55;;;;;;;2.22;1.52;;;;;;;23.37;4.65;100000.03;5136894;27;20053;-77
2021/12/27 08:02:20;;;;;;;2.70;1.30;;;;;;;23.38;4.58;100007.13;5137015;27;20423;-76
2021/12/27 08:04:46;;;;;;;2.00;1.48;;;;;;;23.36;4.75;99993.75;5137262;27;20034;-77
2021/12/27 08:07:11;;;;;;;2.03;1.30;;;;;;;23.38;4.78;100002.47;5137027;27;20019;-76
2021/12/27 08:09:37;;;;;;;1.48;1.15;;;;;;;23.37;4.68;100011.75;5118629;27;20031;-75
2021/12/27 08:12:03;;;;;;;1.30;1.20;;;;;;;23.38;4.58;100009.84;5082250;28;20482;-76
2021/12/27 08:14:28;;;;;;;1.83;1.45;;;;;;;23.41;4.76;100012.00;5097163;28;20085;-76
2021/12/27 08:16:54;;;;;;;2.25;1.33;;;;;;;23.40;4.57;100015.81;5115553;28;20037;-76
2021/12/27 08:19:19;;;;;;;1.30;1.20;;;;;;;23.21;4.60;100018.38;5115051;28;20023;-75
2021/12/27 08:21:44;;;;;;;1.27;1.17;;;;;;;23.36;4.46;100018.31;5115737;28;20032;-76
2021/12/27 08:24:10;;;;;;;1.17;1.08;;;;;;;23.40;4.68;100021.28;5115246;28;20100;-75
2021/12/27 08:26:35;;;;;;;2.72;1.40;;;;;;;23.41;4.72;100017.47;5114986;28;20027;-76
2021/12/27 08:29:03;;;;;;;2.45;1.65;;;;;;;23.43;4.57;100026.16;5097708;28;20051;-77
2021/12/27 08:31:28;;;;;;;4.35;2.72;;;;;;;23.44;4.52;100025.91;5115060;28;20465;-76
2021/12/27 08:33:54;;;;;;;2.45;1.98;;;;;;;23.46;4.38;100025.63;5114542;28;20020;-76
2021/12/27 08:36:19;;;;;;;3.22;2.22;;;;;;;23.48;4.39;100033.53;5114292;28;20035;-76
2021/12/27 08:38:47;;;;;;;2.00;1.80;;;;;;;23.44;4.41;100044.97;5096152;28;20101;-76
2021/12/27 08:41:13;;;;;;;4.40;1.70;;;;;;;23.48;4.59;100028.06;5096679;28;20053;-76
2021/12/27 08:43:38;;;;;;;1.67;1.50;;;;;;;23.46;4.38;100031.06;5079201;28;20020;-75
2021/12/27 08:46:04;;;;;;;2.70;1.73;;;;;;;23.47;4.37;100034.59;5114618;28;20062;-75
2021/12/27 08:48:29;;;;;;;2.67;1.52;;;;;;;23.46;4.38;100043.88;5096075;28;20028;-74
2021/12/27 08:50:55;;;;;;;2.30;1.40;;;;;;;23.48;4.31;100038.97;5079097;28;20040;-76
2021/12/27 08:53:20;;;;;;;2.10;1.70;;;;;;;23.41;4.19;100033.81;5115092;28;20026;-76
2021/12/27 08:55:48;;;;;;;1.77;1.52;;;;;;;23.47;4.25;100037.31;5118129;28;20030;-75
2021/12/27 08:58:13;;;;;;;1.95;1.38;;;;;;;23.47;4.16;100040.06;5118214;28;20019;-75
2021/12/27 09:00:39;;;;;;;1.60;1.50;;;;;;;23.45;4.10;100034.88;5081592;28;20020;-76
2021/12/27 09:03:04;;;;;;;1.55;1.38;;;;;;;23.49;4.17;100037.84;5119951;28;20442;-76
2021/12/27 09:05:30;;;;;;;1.88;1.50;;;;;;;23.47;4.19;100038.13;5082131;28;20470;-75
2021/12/27 09:07:55;;;;;;;1.30;1.20;;;;;;;23.45;4.45;100040.34;5115134;28;20047;-75
2021/12/27 09:10:20;;;;;;;1.60;1.50;;;;;;;23.47;4.33;100037.31;5120098;27;20084;-76
2021/12/27 09:12:46;;;;;;;1.92;1.40;;;;;;;23.48;4.52;100044.44;5135133;27;20027;-75
2021/12/27 09:15:11;;;;;;;1.83;1.30;;;;;;;23.49;4.55;100046.03;5135019;27;20091;-74
2021/12/27 09:17:37;;;;;;;1.65;1.30;;;;;;;23.47;4.71;100042.78;5134771;27;20139;-75
2021/12/27 09:20:04;;;;;;;1.45;1.35;;;;;;;23.49;4.43;100048.75;5134960;27;20110;-74
2021/12/27 09:22:29;;;;;;;1.52;1.40;;;;;;;23.50;4.50;100053.13;5134356;27;20027;-74
2021/12/27 09:24:55;;;;;;;1.30;1.20;;;;;;;23.52;4.50;100048.22;5139847;27;20144;-74
2021/12/27 09:27:20;;;;;;;1.48;1.38;;;;;;;23.53;4.55;100053.38;5117296;27;20377;-76
2021/12/27 09:29:45;;;;;;;1.60;1.50;;;;;;;23.51;4.65;100055.59;5134472;27;20019;-75
2021/12/27 09:32:11;;;;;;;1.27;1.17;;;;;;;23.54;4.37;100065.09;5099514;27;20027;-75
2021/12/27 09:34:37;;;;;;;1.40;1.30;;;;;;;23.53;4.47;100064.28;5119072;27;20457;-75
2021/12/27 09:37:02;;;;;;;1.30;1.20;;;;;;;23.51;4.62;100068.38;5134020;27;20027;-74
2021/12/27 09:39:28;;;;;;;1.42;1.33;;;;;;;23.53;4.69;100068.94;5134839;27;20054;-74
2021/12/27 09:41:53;;;;;;;1.88;1.38;;;;;;;23.56;4.53;100071.06;5134156;27;20380;-74
2021/12/27 09:44:18;;;;;;;1.50;1.40;;;;;;;23.54;4.62;100082.31;5098317;28;20046;-74
2021/12/27 09:46:45;;;;;;;1.50;1.40;;;;;;;23.58;4.54;100077.09;5134159;27;20024;-74
2021/12/27 09:49:12;;;;;;;1.33;1.23;;;;;;;23.54;4.56;100081.47;5134066;27;20023;-74
2021/12/27 09:51:40;;;;;;;1.35;1.25;;;;;;;23.56;4.66;100087.44;5133530;27;20034;-74
2021/12/27 09:54:06;;;;;;;1.48;1.38;;;;;;;23.58;4.62;100085.28;5133830;27;20050;-74
2021/12/27 09:56:31;;;;;;;1.55;1.45;;;;;;;23.58;4.76;100088.00;5105441;28;20427;-74
2021/12/27 09:58:56;;;;;;;3.40;1.50;;;;;;;23.58;4.92;100093.47;5113203;28;20038;-75
2021/12/27 10:01:22;;;;;;;1.70;1.60;;;;;;;23.61;4.34;100098.31;5113382;28;20024;-75
2021/12/27 10:03:48;;;;;;;1.60;1.50;;;;;;;23.62;4.56;100105.44;5113635;28;20036;-75
2021/12/27 10:06:14;;;;;;;1.52;1.42;;;;;;;23.65;4.48;100104.06;5113165;28;20020;-75
2021/12/27 10:08:43;;;;;;;1.50;1.40;;;;;;;23.65;4.58;100117.69;5113367;28;20049;-75
2021/12/27 10:11:35;;;;;;;3.63;2.72;;;;;;;23.64;4.77;100114.13;5124143;28;20039;-75
2021/12/27 10:14:09;;;;;;;4.85;2.63;;;;;;;23.65;4.41;100121.22;5133134;28;20099;-74
2021/12/27 10:17:05;;;;;;;3.55;2.30;;;;;;;23.70;4.69;100129.38;5133978;28;20027;-75
2021/12/27 10:19:33;;;;;;;3.22;2.30;;;;;;;23.68;4.51;100131.59;5133579;28;20530;-74
2021/12/27 10:21:58;;;;;;;4.07;2.80;;;;;;;23.67;4.80;100127.22;5133945;28;20027;-74
2021/12/27 10:24:28;;;;;;;3.47;2.38;;;;;;;23.65;4.41;100129.41;5133711;28;20430;-75
2021/12/27 10:26:54;;;;;;;2.85;2.53;;;;;;;23.68;4.55;100126.13;5133730;28;20342;-75
2021/12/27 10:29:25;;;;;;;4.88;2.65;;;;;;;23.69;4.87;100130.47;5134500;28;20031;-75
2021/12/27 10:31:55;;;;;;;3.00;2.10;;;;;;;23.70;4.90;100123.94;5134237;28;20031;-75
2021/12/27 10:34:22;;;;;;;2.15;1.85;;;;;;;23.71;5.06;100128.28;5133981;28;20051;-74
2021/12/27 10:37:05;;;;;;;1.92;1.73;;;;;;;23.77;4.95;100129.88;5134575;28;20098;-75
2021/12/27 10:39:47;;;;;;;2.80;1.80;;;;;;;23.78;5.21;100130.69;5133972;28;20046;-75
2021/12/27 10:42:14;;;;;;;2.00;1.80;;;;;;;23.75;5.01;100129.38;5115998;28;20034;-75
2021/12/27 10:44:40;;;;;;;1.80;1.70;;;;;;;23.77;5.20;100142.72;5134051;28;20038;-75
2021/12/27 10:47:29;;;;;;;2.25;1.95;;;;;;;23.83;5.30;100144.34;5117083;28;20072;-75
2021/12/27 10:49:55;;;;;;;1.60;1.45;;;;;;;23.80;5.07;100151.16;5135080;28;20023;-75
2021/12/27 10:52:21;;;;;;;2.00;1.75;;;;;;;23.84;5.12;100148.72;5116983;28;20098;-76
2021/12/27 10:54:46;;;;;;;1.73;1.63;;;;;;;23.86;5.21;100154.69;5134797;28;20015;-76
2021/12/27 10:57:12;;;;;;;1.90;1.70;;;;;;;23.85;5.08;100155.78;5134356;28;20038;-76
2021/12/27 10:59:38;;;;;;;2.55;1.65;;;;;;;23.86;5.19;100153.91;5135605;28;20039;-76
2021/12/27 11:02:10;;;;;;;2.05;1.80;;;;;;;23.87;5.04;100150.88;5135214;28;20147;-76
2021/12/27 11:04:37;;;;;;;2.00;1.80;;;;;;;23.86;5.06;100156.63;5134847;28;20072;-76
2021/12/27 11:07:03;;;;;;;1.90;1.70;;;;;;;23.67;5.28;100165.41;5137396;27;20105;-76
2021/12/27 11:09:29;;;;;;;39.03;16.45;;;;;;;23.80;4.94;100164.81;5120923;27;20026;-76
2021/12/27 11:11:54;;;;;;;42.53;13.13;;;;;;;23.81;5.30;100161.00;5101020;28;20035;-76
2021/12/27 11:14:20;;;;;;;82.40;25.73;;;;;;;23.83;5.05;100159.91;5116130;28;20020;-76
2021/12/27 11:16:45;;;;;;;49.08;16.40;;;;;;;23.84;5.04;100172.47;5116198;28;20027;-75
2021/12/27 11:19:10;;;;;;;37.33;12.07;;;;;;;23.84;5.14;100175.19;5116252;28;20028;-76
2021/12/27 11:21:42;;;;;;;26.63;9.05;;;;;;;23.85;4.85;100165.91;5116050;28;20069;-75
2021/12/27 11:24:08;;;;;;;14.63;6.05;;;;;;;23.85;5.05;100185.00;5115954;28;20020;-75
2021/12/27 11:26:35;;;;;;;17.60;4.80;;;;;;;23.84;5.22;100180.66;5115869;28;20019;-75
2021/12/27 11:29:11;;;;;;;9.27;4.13;;;;;;;23.88;5.27;100184.44;5115664;28;20165;-76
2021/12/27 11:31:38;;;;;;;8.30;3.67;;;;;;;23.84;5.14;100186.91;5116163;28;20040;-76
2021/12/27 11:34:08;;;;;;;8.48;3.35;;;;;;;23.83;5.44;100190.72;5097904;28;20031;-76
2021/12/27 11:36:35;;;;;;;7.65;3.28;;;;;;;23.84;5.48;100199.75;5115875;28;20047;-75
2021/12/27 11:39:26;;;;;;;7.28;3.38;;;;;;;23.90;5.29;100202.16;5115970;28;20020;-76